sensor_id;sensor_type;location;lat;lon;timestamp;P1;durP1;ratioP1;P2;durP2;ratioP2
52564;SDS011;38460;53.106;7.004;2023-05-10T00:00:52;12.75;;;9.20;;
52564;SDS011;38460;53.106;7.004;2023-05-10T00:03:18;15.80;;;9.93;;
52564;SDS011;38460;53.106;7.004;2023-05-10T00:05:43;14.95;;;9.93;;
52564;SDS011;38460;53.106;7.004;2023-05-10T00:08:09;15.73;;;10.20;;
52564;SDS011;38460;53.106;7.004;2023-05-10T00:10:35;15.32;;;10.40;;
52564;SDS011;38460;53.106;7.004;2023-05-10T00:13:02;16.15;;;10.48;;
52564;SDS011;38460;53.106;7.004;2023-05-10T00:15:28;16.80;;;11.45;;
52564;SDS011;38460;53.106;7.004;2023-05-10T00:17:55;19.90;;;11.70;;
52564;SDS011;38460;53.106;7.004;2023-05-10T00:20:21;15.02;;;10.88;;
52564;SDS011;38460;53.106;7.004;2023-05-10T00:22:47;19.63;;;12.20;;
52564;SDS011;38460;53.106;7.004;2023-05-10T00:25:13;14.90;;;11.25;;
52564;SDS011;38460;53.106;7.004;2023-05-10T00:27:39;14.25;;;8.98;;
52564;SDS011;38460;53.106;7.004;2023-05-10T00:30:04;10.05;;;7.95;;
52564;SDS011;38460;53.106;7.004;2023-05-10T00:32:31;9.20;;;7.03;;
52564;SDS011;38460;53.106;7.004;2023-05-10T00:34:57;8.43;;;6.20;;
52564;SDS011;38460;53.106;7.004;2023-05-10T00:37:23;8.32;;;5.38;;
52564;SDS011;38460;53.106;7.004;2023-05-10T00:39:48;6.43;;;5.07;;
52564;SDS011;38460;53.106;7.004;2023-05-10T00:42:14;7.28;;;5.25;;
52564;SDS011;38460;53.106;7.004;2023-05-10T00:44:40;6.10;;;4.95;;
52564;SDS011;38460;53.106;7.004;2023-05-10T00:47:05;6.57;;;4.75;;
52564;SDS011;38460;53.106;7.004;2023-05-10T00:49:31;6.78;;;5.32;;
52564;SDS011;38460;53.106;7.004;2023-05-10T00:51:57;7.80;;;5.85;;
52564;SDS011;38460;53.106;7.004;2023-05-10T00:54:23;6.60;;;5.20;;
52564;SDS011;38460;53.106;7.004;2023-05-10T00:56:49;6.78;;;5.38;;
52564;SDS011;38460;53.106;7.004;2023-05-10T00:59:16;7.45;;;5.43;;
52564;SDS011;38460;53.106;7.004;2023-05-10T01:01:43;8.80;;;5.80;;
52564;SDS011;38460;53.106;7.004;2023-05-10T01:04:10;9.68;;;6.57;;
52564;SDS011;38460;53.106;7.004;2023-05-10T01:06:38;8.85;;;6.38;;
52564;SDS011;38460;53.106;7.004;2023-05-10T01:09:07;9.15;;;6.72;;
52564;SDS011;38460;53.106;7.004;2023-05-10T01:11:36;8.80;;;6.75;;
52564;SDS011;38460;53.106;7.004;2023-05-10T01:14:03;10.18;;;7.95;;
52564;SDS011;38460;53.106;7.004;2023-05-10T01:16:32;12.13;;;8.20;;
52564;SDS011;38460;53.106;7.004;2023-05-10T01:19:03;8.68;;;6.78;;
52564;SDS011;38460;53.106;7.004;2023-05-10T01:29:14;8.00;;;5.85;;
52564;SDS011;38460;53.106;7.004;2023-05-10T01:34:35;8.68;;;5.68;;
52564;SDS011;38460;53.106;7.004;2023-05-10T01:37:31;8.48;;;5.68;;
52564;SDS011;38460;53.106;7.004;2023-05-10T01:43:26;9.88;;;6.60;;
52564;SDS011;38460;53.106;7.004;2023-05-10T01:46:00;9.25;;;6.70;;
52564;SDS011;38460;53.106;7.004;2023-05-10T01:48:36;9.15;;;7.05;;
52564;SDS011;38460;53.106;7.004;2023-05-10T01:51:11;10.70;;;6.88;;
52564;SDS011;38460;53.106;7.004;2023-05-10T01:53:39;9.32;;;6.30;;
52564;SDS011;38460;53.106;7.004;2023-05-10T01:56:06;8.48;;;6.20;;
52564;SDS011;38460;53.106;7.004;2023-05-10T01:58:33;9.82;;;7.20;;
52564;SDS011;38460;53.106;7.004;2023-05-10T02:01:02;10.98;;;6.95;;
52564;SDS011;38460;53.106;7.004;2023-05-10T02:03:29;9.70;;;6.47;;
52564;SDS011;38460;53.106;7.004;2023-05-10T02:05:57;8.88;;;5.95;;
52564;SDS011;38460;53.106;7.004;2023-05-10T02:08:24;10.13;;;6.45;;
52564;SDS011;38460;53.106;7.004;2023-05-10T02:10:52;9.85;;;6.93;;
52564;SDS011;38460;53.106;7.004;2023-05-10T02:13:20;10.43;;;6.78;;
52564;SDS011;38460;53.106;7.004;2023-05-10T02:15:48;10.18;;;6.50;;
52564;SDS011;38460;53.106;7.004;2023-05-10T02:18:16;10.52;;;7.13;;
52564;SDS011;38460;53.106;7.004;2023-05-10T02:20:44;11.75;;;7.70;;
52564;SDS011;38460;53.106;7.004;2023-05-10T02:23:11;11.75;;;7.80;;
52564;SDS011;38460;53.106;7.004;2023-05-10T02:25:38;9.52;;;6.75;;
52564;SDS011;38460;53.106;7.004;2023-05-10T02:28:05;9.40;;;7.15;;
52564;SDS011;38460;53.106;7.004;2023-05-10T02:30:32;12.40;;;7.75;;
52564;SDS011;38460;53.106;7.004;2023-05-10T02:32:59;11.10;;;7.85;;
52564;SDS011;38460;53.106;7.004;2023-05-10T02:35:27;16.52;;;7.50;;
52564;SDS011;38460;53.106;7.004;2023-05-10T02:37:53;10.25;;;7.20;;
52564;SDS011;38460;53.106;7.004;2023-05-10T02:40:20;11.77;;;7.88;;
52564;SDS011;38460;53.106;7.004;2023-05-10T02:42:47;10.90;;;7.43;;
52564;SDS011;38460;53.106;7.004;2023-05-10T02:45:18;10.98;;;7.45;;
52564;SDS011;38460;53.106;7.004;2023-05-10T02:47:47;9.57;;;6.70;;
52564;SDS011;38460;53.106;7.004;2023-05-10T02:50:13;12.52;;;8.23;;
52564;SDS011;38460;53.106;7.004;2023-05-10T02:52:40;10.82;;;7.10;;
52564;SDS011;38460;53.106;7.004;2023-05-10T02:55:11;9.40;;;6.97;;
52564;SDS011;38460;53.106;7.004;2023-05-10T02:57:48;11.25;;;6.93;;
52564;SDS011;38460;53.106;7.004;2023-05-10T03:00:17;8.20;;;5.90;;
52564;SDS011;38460;53.106;7.004;2023-05-10T03:02:43;9.23;;;6.45;;
52564;SDS011;38460;53.106;7.004;2023-05-10T03:05:09;10.23;;;7.10;;
52564;SDS011;38460;53.106;7.004;2023-05-10T03:07:34;9.82;;;6.65;;
52564;SDS011;38460;53.106;7.004;2023-05-10T03:10:01;10.85;;;6.25;;
52564;SDS011;38460;53.106;7.004;2023-05-10T03:15:09;10.27;;;7.00;;
52564;SDS011;38460;53.106;7.004;2023-05-10T03:20:31;12.05;;;7.75;;
52564;SDS011;38460;53.106;7.004;2023-05-10T03:26:04;12.13;;;7.88;;
52564;SDS011;38460;53.106;7.004;2023-05-10T03:28:31;9.75;;;6.68;;
52564;SDS011;38460;53.106;7.004;2023-05-10T03:30:58;12.38;;;7.90;;
52564;SDS011;38460;53.106;7.004;2023-05-10T03:33:24;12.85;;;7.97;;
52564;SDS011;38460;53.106;7.004;2023-05-10T03:35:50;11.23;;;7.47;;
52564;SDS011;38460;53.106;7.004;2023-05-10T03:38:16;11.18;;;8.18;;
52564;SDS011;38460;53.106;7.004;2023-05-10T03:40:41;10.60;;;6.53;;
52564;SDS011;38460;53.106;7.004;2023-05-10T03:43:07;10.43;;;7.10;;
52564;SDS011;38460;53.106;7.004;2023-05-10T03:45:33;12.48;;;7.93;;
52564;SDS011;38460;53.106;7.004;2023-05-10T03:47:59;9.48;;;7.25;;
52564;SDS011;38460;53.106;7.004;2023-05-10T03:50:24;12.68;;;7.65;;
52564;SDS011;38460;53.106;7.004;2023-05-10T03:52:51;11.52;;;8.00;;
52564;SDS011;38460;53.106;7.004;2023-05-10T03:55:17;9.95;;;7.05;;
52564;SDS011;38460;53.106;7.004;2023-05-10T03:57:42;10.73;;;7.55;;
52564;SDS011;38460;53.106;7.004;2023-05-10T04:00:09;14.43;;;9.38;;
52564;SDS011;38460;53.106;7.004;2023-05-10T04:02:35;12.95;;;8.52;;
52564;SDS011;38460;53.106;7.004;2023-05-10T04:05:01;13.63;;;9.07;;
52564;SDS011;38460;53.106;7.004;2023-05-10T04:07:27;12.90;;;8.65;;
52564;SDS011;38460;53.106;7.004;2023-05-10T04:09:53;12.20;;;8.27;;
52564;SDS011;38460;53.106;7.004;2023-05-10T04:12:19;11.48;;;8.20;;
52564;SDS011;38460;53.106;7.004;2023-05-10T04:14:44;14.98;;;9.05;;
52564;SDS011;38460;53.106;7.004;2023-05-10T04:17:10;14.27;;;9.18;;
52564;SDS011;38460;53.106;7.004;2023-05-10T04:19:36;15.73;;;10.40;;
52564;SDS011;38460;53.106;7.004;2023-05-10T04:22:02;13.90;;;8.88;;
52564;SDS011;38460;53.106;7.004;2023-05-10T04:24:28;15.85;;;9.82;;
52564;SDS011;38460;53.106;7.004;2023-05-10T04:26:54;17.02;;;9.57;;
52564;SDS011;38460;53.106;7.004;2023-05-10T04:29:20;13.68;;;8.85;;
52564;SDS011;38460;53.106;7.004;2023-05-10T04:31:46;14.57;;;9.20;;
52564;SDS011;38460;53.106;7.004;2023-05-10T04:34:11;14.32;;;9.23;;
52564;SDS011;38460;53.106;7.004;2023-05-10T04:36:37;15.48;;;10.10;;
52564;SDS011;38460;53.106;7.004;2023-05-10T04:39:03;16.63;;;9.98;;
52564;SDS011;38460;53.106;7.004;2023-05-10T04:41:29;14.82;;;9.30;;
52564;SDS011;38460;53.106;7.004;2023-05-10T04:43:55;16.38;;;9.85;;
52564;SDS011;38460;53.106;7.004;2023-05-10T04:46:21;14.68;;;9.02;;
52564;SDS011;38460;53.106;7.004;2023-05-10T04:48:47;18.70;;;10.10;;
52564;SDS011;38460;53.106;7.004;2023-05-10T04:51:13;14.65;;;9.32;;
52564;SDS011;38460;53.106;7.004;2023-05-10T04:53:38;13.70;;;9.45;;
52564;SDS011;38460;53.106;7.004;2023-05-10T04:56:04;13.60;;;9.73;;
52564;SDS011;38460;53.106;7.004;2023-05-10T04:58:30;13.13;;;8.32;;
52564;SDS011;38460;53.106;7.004;2023-05-10T05:00:56;11.55;;;8.50;;
52564;SDS011;38460;53.106;7.004;2023-05-10T05:03:22;17.23;;;10.05;;
52564;SDS011;38460;53.106;7.004;2023-05-10T05:05:48;13.35;;;8.25;;
52564;SDS011;38460;53.106;7.004;2023-05-10T05:08:14;14.73;;;8.73;;
52564;SDS011;38460;53.106;7.004;2023-05-10T05:10:39;12.18;;;7.90;;
52564;SDS011;38460;53.106;7.004;2023-05-10T05:13:05;12.13;;;7.85;;
52564;SDS011;38460;53.106;7.004;2023-05-10T05:15:31;10.82;;;7.57;;
52564;SDS011;38460;53.106;7.004;2023-05-10T05:17:56;10.93;;;7.13;;
52564;SDS011;38460;53.106;7.004;2023-05-10T05:20:22;12.10;;;7.78;;
52564;SDS011;38460;53.106;7.004;2023-05-10T05:22:48;7.82;;;6.22;;
52564;SDS011;38460;53.106;7.004;2023-05-10T05:25:14;10.90;;;7.28;;
52564;SDS011;38460;53.106;7.004;2023-05-10T05:27:41;10.43;;;6.60;;
52564;SDS011;38460;53.106;7.004;2023-05-10T05:30:06;9.27;;;6.28;;
52564;SDS011;38460;53.106;7.004;2023-05-10T05:32:33;9.27;;;6.65;;
52564;SDS011;38460;53.106;7.004;2023-05-10T05:34:58;10.00;;;6.60;;
52564;SDS011;38460;53.106;7.004;2023-05-10T05:37:24;9.77;;;7.15;;
52564;SDS011;38460;53.106;7.004;2023-05-10T05:39:50;8.48;;;6.15;;
52564;SDS011;38460;53.106;7.004;2023-05-10T05:42:16;10.35;;;6.43;;
52564;SDS011;38460;53.106;7.004;2023-05-10T05:44:43;10.15;;;7.00;;
52564;SDS011;38460;53.106;7.004;2023-05-10T05:47:09;9.40;;;6.40;;
52564;SDS011;38460;53.106;7.004;2023-05-10T05:49:35;8.25;;;6.00;;
52564;SDS011;38460;53.106;7.004;2023-05-10T05:52:02;8.65;;;6.22;;
52564;SDS011;38460;53.106;7.004;2023-05-10T05:54:28;7.93;;;5.72;;
52564;SDS011;38460;53.106;7.004;2023-05-10T05:56:58;6.72;;;4.97;;
52564;SDS011;38460;53.106;7.004;2023-05-10T05:59:26;7.55;;;5.43;;
52564;SDS011;38460;53.106;7.004;2023-05-10T06:01:52;7.28;;;5.50;;
52564;SDS011;38460;53.106;7.004;2023-05-10T06:04:18;7.18;;;5.30;;
52564;SDS011;38460;53.106;7.004;2023-05-10T06:06:44;8.15;;;5.65;;
52564;SDS011;38460;53.106;7.004;2023-05-10T06:09:10;7.75;;;5.65;;
52564;SDS011;38460;53.106;7.004;2023-05-10T06:11:36;7.13;;;5.35;;
52564;SDS011;38460;53.106;7.004;2023-05-10T06:14:02;7.60;;;5.70;;
52564;SDS011;38460;53.106;7.004;2023-05-10T06:16:33;6.57;;;4.88;;
52564;SDS011;38460;53.106;7.004;2023-05-10T06:18:59;6.90;;;4.60;;
52564;SDS011;38460;53.106;7.004;2023-05-10T06:21:25;5.57;;;4.15;;
52564;SDS011;38460;53.106;7.004;2023-05-10T06:23:51;6.57;;;4.38;;
52564;SDS011;38460;53.106;7.004;2023-05-10T06:26:17;5.82;;;4.10;;
52564;SDS011;38460;53.106;7.004;2023-05-10T06:28:42;5.78;;;3.83;;
52564;SDS011;38460;53.106;7.004;2023-05-10T06:31:08;5.03;;;3.67;;
52564;SDS011;38460;53.106;7.004;2023-05-10T06:33:36;4.72;;;3.13;;
52564;SDS011;38460;53.106;7.004;2023-05-10T06:36:02;4.53;;;2.97;;
52564;SDS011;38460;53.106;7.004;2023-05-10T06:38:27;4.07;;;2.80;;
52564;SDS011;38460;53.106;7.004;2023-05-10T06:40:53;4.68;;;2.83;;
52564;SDS011;38460;53.106;7.004;2023-05-10T06:43:19;4.10;;;2.97;;
52564;SDS011;38460;53.106;7.004;2023-05-10T06:45:45;3.03;;;2.33;;
52564;SDS011;38460;53.106;7.004;2023-05-10T06:48:11;4.10;;;2.60;;
52564;SDS011;38460;53.106;7.004;2023-05-10T06:50:36;2.88;;;1.98;;
52564;SDS011;38460;53.106;7.004;2023-05-10T06:53:02;2.80;;;2.00;;
52564;SDS011;38460;53.106;7.004;2023-05-10T06:55:28;2.72;;;1.80;;
52564;SDS011;38460;53.106;7.004;2023-05-10T06:57:54;2.03;;;1.50;;
52564;SDS011;38460;53.106;7.004;2023-05-10T07:00:20;2.70;;;1.48;;
52564;SDS011;38460;53.106;7.004;2023-05-10T07:02:46;2.30;;;1.45;;
52564;SDS011;38460;53.106;7.004;2023-05-10T07:05:12;2.13;;;1.10;;
52564;SDS011;38460;53.106;7.004;2023-05-10T07:07:39;2.42;;;1.30;;
52564;SDS011;38460;53.106;7.004;2023-05-10T07:10:04;2.00;;;1.38;;
52564;SDS011;38460;53.106;7.004;2023-05-10T07:12:32;6.25;;;1.40;;
52564;SDS011;38460;53.106;7.004;2023-05-10T07:14:58;3.72;;;1.70;;
52564;SDS011;38460;53.106;7.004;2023-05-10T07:17:23;1.92;;;1.30;;
52564;SDS011;38460;53.106;7.004;2023-05-10T07:19:49;2.47;;;1.40;;
52564;SDS011;38460;53.106;7.004;2023-05-10T07:22:15;3.13;;;1.90;;
52564;SDS011;38460;53.106;7.004;2023-05-10T07:24:42;3.00;;;1.80;;
52564;SDS011;38460;53.106;7.004;2023-05-10T07:27:07;2.95;;;2.13;;
52564;SDS011;38460;53.106;7.004;2023-05-10T07:29:34;3.15;;;2.13;;
52564;SDS011;38460;53.106;7.004;2023-05-10T07:32:00;3.53;;;2.08;;
52564;SDS011;38460;53.106;7.004;2023-05-10T07:34:26;2.80;;;2.00;;
52564;SDS011;38460;53.106;7.004;2023-05-10T07:36:54;3.45;;;2.45;;
52564;SDS011;38460;53.106;7.004;2023-05-10T07:39:19;3.97;;;2.60;;
52564;SDS011;38460;53.106;7.004;2023-05-10T07:41:45;4.82;;;2.67;;
52564;SDS011;38460;53.106;7.004;2023-05-10T07:44:11;5.63;;;2.90;;
52564;SDS011;38460;53.106;7.004;2023-05-10T07:46:37;4.45;;;2.95;;
52564;SDS011;38460;53.106;7.004;2023-05-10T07:49:03;4.10;;;2.65;;
52564;SDS011;38460;53.106;7.004;2023-05-10T07:51:29;5.70;;;3.58;;
52564;SDS011;38460;53.106;7.004;2023-05-10T07:53:55;5.18;;;3.25;;
52564;SDS011;38460;53.106;7.004;2023-05-10T07:58:50;5.40;;;3.63;;
52564;SDS011;38460;53.106;7.004;2023-05-10T08:01:16;5.05;;;3.53;;
52564;SDS011;38460;53.106;7.004;2023-05-10T08:03:42;5.97;;;3.85;;
52564;SDS011;38460;53.106;7.004;2023-05-10T08:06:08;5.63;;;3.55;;
52564;SDS011;38460;53.106;7.004;2023-05-10T08:08:34;4.55;;;3.00;;
52564;SDS011;38460;53.106;7.004;2023-05-10T08:11:00;4.50;;;2.65;;
52564;SDS011;38460;53.106;7.004;2023-05-10T08:13:25;4.85;;;2.63;;
52564;SDS011;38460;53.106;7.004;2023-05-10T08:15:51;4.35;;;2.60;;
52564;SDS011;38460;53.106;7.004;2023-05-10T08:18:18;3.95;;;2.40;;
52564;SDS011;38460;53.106;7.004;2023-05-10T08:20:44;3.42;;;2.50;;
52564;SDS011;38460;53.106;7.004;2023-05-10T08:23:12;4.72;;;2.10;;
52564;SDS011;38460;53.106;7.004;2023-05-10T08:25:38;6.53;;;2.97;;
52564;SDS011;38460;53.106;7.004;2023-05-10T08:28:04;4.35;;;2.70;;
52564;SDS011;38460;53.106;7.004;2023-05-10T08:30:29;3.67;;;2.28;;
52564;SDS011;38460;53.106;7.004;2023-05-10T08:32:55;4.53;;;3.03;;
52564;SDS011;38460;53.106;7.004;2023-05-10T08:35:21;4.22;;;3.03;;
52564;SDS011;38460;53.106;7.004;2023-05-10T08:37:47;5.85;;;3.15;;
52564;SDS011;38460;53.106;7.004;2023-05-10T08:40:12;5.13;;;3.10;;
52564;SDS011;38460;53.106;7.004;2023-05-10T08:42:42;3.53;;;2.67;;
52564;SDS011;38460;53.106;7.004;2023-05-10T08:45:12;5.88;;;3.33;;
52564;SDS011;38460;53.106;7.004;2023-05-10T08:47:40;4.57;;;2.72;;
52564;SDS011;38460;53.106;7.004;2023-05-10T08:50:07;4.55;;;3.10;;
52564;SDS011;38460;53.106;7.004;2023-05-10T08:52:33;7.45;;;2.90;;
52564;SDS011;38460;53.106;7.004;2023-05-10T08:55:05;5.03;;;3.15;;
52564;SDS011;38460;53.106;7.004;2023-05-10T08:57:31;4.38;;;3.35;;
52564;SDS011;38460;53.106;7.004;2023-05-10T08:59:57;4.40;;;3.30;;
52564;SDS011;38460;53.106;7.004;2023-05-10T09:02:25;4.22;;;3.28;;
52564;SDS011;38460;53.106;7.004;2023-05-10T09:04:52;4.72;;;3.55;;
52564;SDS011;38460;53.106;7.004;2023-05-10T09:07:18;6.05;;;3.28;;
52564;SDS011;38460;53.106;7.004;2023-05-10T09:09:45;4.65;;;3.60;;
52564;SDS011;38460;53.106;7.004;2023-05-10T09:12:12;4.63;;;3.65;;
52564;SDS011;38460;53.106;7.004;2023-05-10T09:14:40;4.95;;;3.22;;
52564;SDS011;38460;53.106;7.004;2023-05-10T09:17:07;5.95;;;3.88;;
52564;SDS011;38460;53.106;7.004;2023-05-10T09:19:33;5.80;;;4.00;;
52564;SDS011;38460;53.106;7.004;2023-05-10T09:21:59;5.57;;;4.18;;
52564;SDS011;38460;53.106;7.004;2023-05-10T09:24:26;5.22;;;3.70;;
52564;SDS011;38460;53.106;7.004;2023-05-10T09:26:52;4.88;;;3.33;;
52564;SDS011;38460;53.106;7.004;2023-05-10T09:29:18;5.13;;;3.75;;
52564;SDS011;38460;53.106;7.004;2023-05-10T09:31:47;4.55;;;3.38;;
52564;SDS011;38460;53.106;7.004;2023-05-10T09:34:17;5.55;;;3.53;;
52564;SDS011;38460;53.106;7.004;2023-05-10T09:36:55;6.57;;;3.90;;
52564;SDS011;38460;53.106;7.004;2023-05-10T09:41:57;7.00;;;4.13;;
52564;SDS011;38460;53.106;7.004;2023-05-10T09:44:25;7.13;;;4.75;;
52564;SDS011;38460;53.106;7.004;2023-05-10T09:46:51;5.75;;;4.00;;
52564;SDS011;38460;53.106;7.004;2023-05-10T09:49:18;5.72;;;4.45;;
52564;SDS011;38460;53.106;7.004;2023-05-10T09:51:45;5.68;;;4.35;;
52564;SDS011;38460;53.106;7.004;2023-05-10T09:54:12;7.28;;;5.53;;
52564;SDS011;38460;53.106;7.004;2023-05-10T09:56:39;6.50;;;4.90;;
52564;SDS011;38460;53.106;7.004;2023-05-10T09:59:06;7.15;;;5.32;;
52564;SDS011;38460;53.106;7.004;2023-05-10T10:01:36;7.15;;;4.57;;
52564;SDS011;38460;53.106;7.004;2023-05-10T10:04:06;7.22;;;4.93;;
52564;SDS011;38460;53.106;7.004;2023-05-10T10:06:36;6.85;;;5.35;;
52564;SDS011;38460;53.106;7.004;2023-05-10T10:09:03;6.68;;;5.05;;
52564;SDS011;38460;53.106;7.004;2023-05-10T10:11:34;7.47;;;4.60;;
52564;SDS011;38460;53.106;7.004;2023-05-10T10:14:03;5.65;;;4.00;;
52564;SDS011;38460;53.106;7.004;2023-05-10T10:16:30;5.28;;;4.38;;
52564;SDS011;38460;53.106;7.004;2023-05-10T10:18:57;7.15;;;5.00;;
52564;SDS011;38460;53.106;7.004;2023-05-10T10:21:23;4.72;;;3.63;;
52564;SDS011;38460;53.106;7.004;2023-05-10T10:23:49;5.13;;;4.00;;
52564;SDS011;38460;53.106;7.004;2023-05-10T10:26:16;8.45;;;3.83;;
52564;SDS011;38460;53.106;7.004;2023-05-10T10:31:32;4.82;;;3.92;;
52564;SDS011;38460;53.106;7.004;2023-05-10T10:34:06;6.10;;;4.20;;
52564;SDS011;38460;53.106;7.004;2023-05-10T10:36:45;4.45;;;3.38;;
52564;SDS011;38460;53.106;7.004;2023-05-10T10:39:12;5.68;;;3.88;;
52564;SDS011;38460;53.106;7.004;2023-05-10T10:41:39;4.65;;;3.50;;
52564;SDS011;38460;53.106;7.004;2023-05-10T10:49:53;4.93;;;3.70;;
52564;SDS011;38460;53.106;7.004;2023-05-10T10:52:31;6.03;;;4.03;;
52564;SDS011;38460;53.106;7.004;2023-05-10T10:55:05;5.63;;;4.03;;
52564;SDS011;38460;53.106;7.004;2023-05-10T10:57:43;6.75;;;4.30;;
52564;SDS011;38460;53.106;7.004;2023-05-10T11:05:33;4.28;;;2.90;;
52564;SDS011;38460;53.106;7.004;2023-05-10T11:08:01;5.95;;;2.80;;
52564;SDS011;38460;53.106;7.004;2023-05-10T11:10:50;4.57;;;3.08;;
52564;SDS011;38460;53.106;7.004;2023-05-10T11:13:21;4.60;;;3.07;;
52564;SDS011;38460;53.106;7.004;2023-05-10T11:15:57;5.93;;;3.50;;
52564;SDS011;38460;53.106;7.004;2023-05-10T11:18:25;5.25;;;3.47;;
52564;SDS011;38460;53.106;7.004;2023-05-10T11:20:58;5.07;;;3.15;;
52564;SDS011;38460;53.106;7.004;2023-05-10T11:23:31;6.38;;;3.92;;
52564;SDS011;38460;53.106;7.004;2023-05-10T11:26:13;4.97;;;3.70;;
52564;SDS011;38460;53.106;7.004;2023-05-10T11:28:46;5.00;;;3.53;;
52564;SDS011;38460;53.106;7.004;2023-05-10T11:31:13;7.82;;;4.85;;
52564;SDS011;38460;53.106;7.004;2023-05-10T11:33:43;6.75;;;4.88;;
52564;SDS011;38460;53.106;7.004;2023-05-10T11:36:11;5.68;;;3.50;;
52564;SDS011;38460;53.106;7.004;2023-05-10T11:38:40;5.35;;;3.03;;
52564;SDS011;38460;53.106;7.004;2023-05-10T11:41:07;5.20;;;3.75;;
52564;SDS011;38460;53.106;7.004;2023-05-10T11:43:35;6.57;;;3.67;;
52564;SDS011;38460;53.106;7.004;2023-05-10T11:46:03;5.25;;;3.67;;
52564;SDS011;38460;53.106;7.004;2023-05-10T11:48:33;4.45;;;3.15;;
52564;SDS011;38460;53.106;7.004;2023-05-10T11:51:00;4.57;;;3.55;;
52564;SDS011;38460;53.106;7.004;2023-05-10T11:53:27;5.88;;;3.72;;
52564;SDS011;38460;53.106;7.004;2023-05-10T11:56:03;6.10;;;4.20;;
52564;SDS011;38460;53.106;7.004;2023-05-10T11:58:33;7.72;;;4.60;;
52564;SDS011;38460;53.106;7.004;2023-05-10T12:01:00;6.43;;;4.10;;
52564;SDS011;38460;53.106;7.004;2023-05-10T12:03:27;6.18;;;4.28;;
52564;SDS011;38460;53.106;7.004;2023-05-10T12:05:54;7.63;;;4.68;;
52564;SDS011;38460;53.106;7.004;2023-05-10T12:08:30;8.52;;;4.90;;
52564;SDS011;38460;53.106;7.004;2023-05-10T12:11:08;8.73;;;5.05;;
52564;SDS011;38460;53.106;7.004;2023-05-10T12:13:43;7.97;;;4.63;;
52564;SDS011;38460;53.106;7.004;2023-05-10T12:16:12;8.60;;;5.00;;
52564;SDS011;38460;53.106;7.004;2023-05-10T12:18:40;8.38;;;5.35;;
52564;SDS011;38460;53.106;7.004;2023-05-10T12:21:07;7.35;;;5.18;;
52564;SDS011;38460;53.106;7.004;2023-05-10T12:23:36;8.60;;;4.90;;
52564;SDS011;38460;53.106;7.004;2023-05-10T12:26:02;7.50;;;4.93;;
52564;SDS011;38460;53.106;7.004;2023-05-10T12:28:32;7.13;;;4.47;;
52564;SDS011;38460;53.106;7.004;2023-05-10T12:31:01;7.22;;;4.80;;
52564;SDS011;38460;53.106;7.004;2023-05-10T12:33:35;7.32;;;4.75;;
52564;SDS011;38460;53.106;7.004;2023-05-10T12:36:12;7.97;;;4.80;;
52564;SDS011;38460;53.106;7.004;2023-05-10T12:38:40;6.30;;;4.45;;
52564;SDS011;38460;53.106;7.004;2023-05-10T12:41:14;6.78;;;5.38;;
52564;SDS011;38460;53.106;7.004;2023-05-10T12:43:41;6.53;;;5.07;;
52564;SDS011;38460;53.106;7.004;2023-05-10T12:46:11;6.40;;;3.85;;
52564;SDS011;38460;53.106;7.004;2023-05-10T12:48:39;7.05;;;4.32;;
52564;SDS011;38460;53.106;7.004;2023-05-10T12:51:06;6.47;;;4.03;;
52564;SDS011;38460;53.106;7.004;2023-05-10T12:53:38;5.55;;;4.22;;
52564;SDS011;38460;53.106;7.004;2023-05-10T12:56:04;6.85;;;4.28;;
52564;SDS011;38460;53.106;7.004;2023-05-10T12:58:31;9.13;;;4.60;;
52564;SDS011;38460;53.106;7.004;2023-05-10T13:00:57;8.02;;;4.78;;
52564;SDS011;38460;53.106;7.004;2023-05-10T13:03:24;6.35;;;4.57;;
52564;SDS011;38460;53.106;7.004;2023-05-10T13:05:50;8.73;;;4.55;;
52564;SDS011;38460;53.106;7.004;2023-05-10T13:08:16;6.78;;;4.63;;
52564;SDS011;38460;53.106;7.004;2023-05-10T13:10:41;7.43;;;4.95;;
52564;SDS011;38460;53.106;7.004;2023-05-10T13:13:07;7.95;;;4.80;;
52564;SDS011;38460;53.106;7.004;2023-05-10T13:15:33;8.13;;;4.70;;
52564;SDS011;38460;53.106;7.004;2023-05-10T13:18:00;6.30;;;3.20;;
52564;SDS011;38460;53.106;7.004;2023-05-10T13:20:26;5.90;;;3.72;;
52564;SDS011;38460;53.106;7.004;2023-05-10T13:22:52;5.85;;;3.55;;
52564;SDS011;38460;53.106;7.004;2023-05-10T13:25:18;6.93;;;3.85;;
52564;SDS011;38460;53.106;7.004;2023-05-10T13:27:44;6.53;;;3.45;;
52564;SDS011;38460;53.106;7.004;2023-05-10T13:30:10;5.43;;;3.65;;
52564;SDS011;38460;53.106;7.004;2023-05-10T13:32:36;6.18;;;4.25;;
52564;SDS011;38460;53.106;7.004;2023-05-10T13:35:02;5.13;;;3.08;;
52564;SDS011;38460;53.106;7.004;2023-05-10T13:37:29;6.18;;;4.15;;
52564;SDS011;38460;53.106;7.004;2023-05-10T13:39:56;10.10;;;4.22;;
52564;SDS011;38460;53.106;7.004;2023-05-10T13:42:22;8.38;;;4.53;;
52564;SDS011;38460;53.106;7.004;2023-05-10T13:44:48;8.75;;;4.93;;
52564;SDS011;38460;53.106;7.004;2023-05-10T13:47:15;8.95;;;4.75;;
52564;SDS011;38460;53.106;7.004;2023-05-10T13:49:41;6.82;;;4.22;;
52564;SDS011;38460;53.106;7.004;2023-05-10T13:52:07;9.32;;;4.90;;
52564;SDS011;38460;53.106;7.004;2023-05-10T13:54:35;8.27;;;4.75;;
52564;SDS011;38460;53.106;7.004;2023-05-10T13:57:04;9.00;;;5.47;;
52564;SDS011;38460;53.106;7.004;2023-05-10T13:59:30;9.55;;;5.75;;
52564;SDS011;38460;53.106;7.004;2023-05-10T14:01:59;7.20;;;4.63;;
52564;SDS011;38460;53.106;7.004;2023-05-10T14:04:27;7.22;;;4.20;;
52564;SDS011;38460;53.106;7.004;2023-05-10T14:06:53;8.32;;;4.60;;
52564;SDS011;38460;53.106;7.004;2023-05-10T14:09:19;7.63;;;4.00;;
52564;SDS011;38460;53.106;7.004;2023-05-10T14:11:45;7.82;;;4.40;;
52564;SDS011;38460;53.106;7.004;2023-05-10T14:14:11;13.93;;;4.28;;
52564;SDS011;38460;53.106;7.004;2023-05-10T14:16:41;7.10;;;4.30;;
52564;SDS011;38460;53.106;7.004;2023-05-10T14:19:08;8.23;;;4.13;;
52564;SDS011;38460;53.106;7.004;2023-05-10T14:21:34;7.43;;;5.22;;
52564;SDS011;38460;53.106;7.004;2023-05-10T14:24:00;7.50;;;4.72;;
52564;SDS011;38460;53.106;7.004;2023-05-10T14:26:25;9.38;;;5.20;;
52564;SDS011;38460;53.106;7.004;2023-05-10T14:28:51;8.57;;;4.80;;
52564;SDS011;38460;53.106;7.004;2023-05-10T14:31:17;7.32;;;4.38;;
52564;SDS011;38460;53.106;7.004;2023-05-10T14:33:45;8.32;;;4.75;;
52564;SDS011;38460;53.106;7.004;2023-05-10T14:36:12;7.72;;;4.78;;
52564;SDS011;38460;53.106;7.004;2023-05-10T14:38:38;7.70;;;4.65;;
52564;SDS011;38460;53.106;7.004;2023-05-10T14:41:04;7.38;;;4.35;;
52564;SDS011;38460;53.106;7.004;2023-05-10T14:43:30;9.13;;;5.32;;
52564;SDS011;38460;53.106;7.004;2023-05-10T14:45:56;10.77;;;5.68;;
52564;SDS011;38460;53.106;7.004;2023-05-10T14:48:22;8.65;;;5.57;;
52564;SDS011;38460;53.106;7.004;2023-05-10T14:50:47;8.52;;;5.25;;
52564;SDS011;38460;53.106;7.004;2023-05-10T14:53:15;8.40;;;5.18;;
52564;SDS011;38460;53.106;7.004;2023-05-10T14:55:41;10.18;;;5.40;;
52564;SDS011;38460;53.106;7.004;2023-05-10T14:58:07;8.68;;;5.95;;
52564;SDS011;38460;53.106;7.004;2023-05-10T15:00:33;8.52;;;5.35;;
52564;SDS011;38460;53.106;7.004;2023-05-10T15:02:58;7.65;;;5.10;;
52564;SDS011;38460;53.106;7.004;2023-05-10T15:05:24;9.18;;;5.13;;
52564;SDS011;38460;53.106;7.004;2023-05-10T15:07:50;8.98;;;5.90;;
52564;SDS011;38460;53.106;7.004;2023-05-10T15:10:16;7.50;;;5.43;;
52564;SDS011;38460;53.106;7.004;2023-05-10T15:12:43;9.20;;;5.15;;
52564;SDS011;38460;53.106;7.004;2023-05-10T15:15:09;8.13;;;5.00;;
52564;SDS011;38460;53.106;7.004;2023-05-10T15:17:34;8.35;;;5.47;;
52564;SDS011;38460;53.106;7.004;2023-05-10T15:20:00;8.30;;;5.03;;
52564;SDS011;38460;53.106;7.004;2023-05-10T15:22:28;10.75;;;5.88;;
52564;SDS011;38460;53.106;7.004;2023-05-10T15:24:55;7.32;;;5.18;;